sensor_id;sensor_type;location;lat;lon;timestamp;temperature;humidity
9772;DHT22;4925;52.588;13.370;2023-07-20T00:01:44;18.80;99.90
9772;DHT22;4925;52.588;13.370;2023-07-20T00:04:11;18.80;99.90
9772;DHT22;4925;52.588;13.370;2023-07-20T00:06:37;18.80;99.90
9772;DHT22;4925;52.588;13.370;2023-07-20T00:09:09;18.50;99.90
9772;DHT22;4925;52.588;13.370;2023-07-20T00:11:37;18.50;99.90
9772;DHT22;4925;52.588;13.370;2023-07-20T00:14:05;18.30;99.90
9772;DHT22;4925;52.588;13.370;2023-07-20T00:16:31;18.50;99.90
9772;DHT22;4925;52.588;13.370;2023-07-20T00:18:56;18.50;99.90
9772;DHT22;4925;52.588;13.370;2023-07-20T00:21:22;18.60;99.90
9772;DHT22;4925;52.588;13.370;2023-07-20T00:23:48;18.50;99.90
9772;DHT22;4925;52.588;13.370;2023-07-20T00:26:13;18.60;99.90
9772;DHT22;4925;52.588;13.370;2023-07-20T00:28:39;18.60;99.90
9772;DHT22;4925;52.588;13.370;2023-07-20T00:31:05;18.60;99.90
9772;DHT22;4925;52.588;13.370;2023-07-20T00:33:30;18.60;99.90
9772;DHT22;4925;52.588;13.370;2023-07-20T00:35:56;18.50;99.90
9772;DHT22;4925;52.588;13.370;2023-07-20T00:38:22;18.30;99.90
9772;DHT22;4925;52.588;13.370;2023-07-20T00:40:47;18.30;99.90
9772;DHT22;4925;52.588;13.370;2023-07-20T00:43:16;18.20;99.90
9772;DHT22;4925;52.588;13.370;2023-07-20T00:45:42;18.20;99.90
9772;DHT22;4925;52.588;13.370;2023-07-20T00:48:09;18.20;99.90
9772;DHT22;4925;52.588;13.370;2023-07-20T00:50:35;18.20;99.90
9772;DHT22;4925;52.588;13.370;2023-07-20T00:53:02;18.00;99.90
9772;DHT22;4925;52.588;13.370;2023-07-20T00:55:30;17.90;99.90
9772;DHT22;4925;52.588;13.370;2023-07-20T00:57:56;18.00;99.90
9772;DHT22;4925;52.588;13.370;2023-07-20T01:00:22;18.00;99.90
9772;DHT22;4925;52.588;13.370;2023-07-20T01:02:47;18.00;99.90
9772;DHT22;4925;52.588;13.370;2023-07-20T01:05:13;18.00;99.90
9772;DHT22;4925;52.588;13.370;2023-07-20T01:10:31;17.90;99.90
9772;DHT22;4925;52.588;13.370;2023-07-20T01:13:00;17.70;99.90
9772;DHT22;4925;52.588;13.370;2023-07-20T01:15:27;17.80;99.90
9772;DHT22;4925;52.588;13.370;2023-07-20T01:17:52;17.90;99.90
9772;DHT22;4925;52.588;13.370;2023-07-20T01:20:20;17.80;99.90
9772;DHT22;4925;52.588;13.370;2023-07-20T01:28:31;17.30;99.90
9772;DHT22;4925;52.588;13.370;2023-07-20T01:33:41;17.30;99.90
9772;DHT22;4925;52.588;13.370;2023-07-20T01:36:08;17.30;99.90
9772;DHT22;4925;52.588;13.370;2023-07-20T01:38:36;17.30;99.90
9772;DHT22;4925;52.588;13.370;2023-07-20T01:41:03;17.40;99.90
9772;DHT22;4925;52.588;13.370;2023-07-20T01:43:29;17.50;99.90
9772;DHT22;4925;52.588;13.370;2023-07-20T01:45:54;17.60;99.90
9772;DHT22;4925;52.588;13.370;2023-07-20T01:48:20;17.50;99.90
9772;DHT22;4925;52.588;13.370;2023-07-20T01:50:45;17.60;99.90
9772;DHT22;4925;52.588;13.370;2023-07-20T01:53:11;17.60;99.90
9772;DHT22;4925;52.588;13.370;2023-07-20T01:55:37;17.70;99.90
9772;DHT22;4925;52.588;13.370;2023-07-20T01:58:03;17.60;99.90
9772;DHT22;4925;52.588;13.370;2023-07-20T02:00:29;17.70;99.90
9772;DHT22;4925;52.588;13.370;2023-07-20T02:02:54;17.60;99.90
9772;DHT22;4925;52.588;13.370;2023-07-20T02:05:20;17.60;99.90
9772;DHT22;4925;52.588;13.370;2023-07-20T02:07:46;17.60;99.90
9772;DHT22;4925;52.588;13.370;2023-07-20T02:10:12;17.70;99.90
9772;DHT22;4925;52.588;13.370;2023-07-20T02:12:37;17.70;99.90
9772;DHT22;4925;52.588;13.370;2023-07-20T02:15:03;17.70;99.90
9772;DHT22;4925;52.588;13.370;2023-07-20T02:17:29;17.70;99.90
9772;DHT22;4925;52.588;13.370;2023-07-20T02:19:56;17.70;99.90
9772;DHT22;4925;52.588;13.370;2023-07-20T02:22:23;17.70;99.90
9772;DHT22;4925;52.588;13.370;2023-07-20T02:24:49;17.70;99.90
9772;DHT22;4925;52.588;13.370;2023-07-20T02:27:15;17.70;99.90
9772;DHT22;4925;52.588;13.370;2023-07-20T02:29:42;17.70;99.90
9772;DHT22;4925;52.588;13.370;2023-07-20T02:32:08;17.60;99.90
9772;DHT22;4925;52.588;13.370;2023-07-20T02:34:35;17.70;99.90
9772;DHT22;4925;52.588;13.370;2023-07-20T02:37:01;17.60;99.90
9772;DHT22;4925;52.588;13.370;2023-07-20T02:39:29;17.70;99.90
9772;DHT22;4925;52.588;13.370;2023-07-20T02:41:55;17.70;99.90
9772;DHT22;4925;52.588;13.370;2023-07-20T02:44:21;17.70;99.90
9772;DHT22;4925;52.588;13.370;2023-07-20T02:46:48;17.80;99.90
9772;DHT22;4925;52.588;13.370;2023-07-20T02:49:15;17.80;99.90
9772;DHT22;4925;52.588;13.370;2023-07-20T02:51:41;17.60;99.90
9772;DHT22;4925;52.588;13.370;2023-07-20T02:54:07;17.60;99.90
9772;DHT22;4925;52.588;13.370;2023-07-20T02:56:32;17.60;99.90
9772;DHT22;4925;52.588;13.370;2023-07-20T02:58:58;17.60;99.90
9772;DHT22;4925;52.588;13.370;2023-07-20T03:01:24;17.70;99.90
9772;DHT22;4925;52.588;13.370;2023-07-20T03:03:49;17.60;99.90
9772;DHT22;4925;52.588;13.370;2023-07-20T03:06:16;17.60;99.90
9772;DHT22;4925;52.588;13.370;2023-07-20T03:08:42;17.60;99.90
9772;DHT22;4925;52.588;13.370;2023-07-20T03:11:15;17.70;99.90
9772;DHT22;4925;52.588;13.370;2023-07-20T03:13:42;17.70;99.90
9772;DHT22;4925;52.588;13.370;2023-07-20T03:16:08;17.60;99.90
9772;DHT22;4925;52.588;13.370;2023-07-20T03:18:37;17.50;99.90
9772;DHT22;4925;52.588;13.370;2023-07-20T03:21:04;17.30;99.90
9772;DHT22;4925;52.588;13.370;2023-07-20T03:23:30;17.40;99.90
9772;DHT22;4925;52.588;13.370;2023-07-20T03:25:56;17.40;99.90
9772;DHT22;4925;52.588;13.370;2023-07-20T03:28:21;17.40;99.90
9772;DHT22;4925;52.588;13.370;2023-07-20T03:30:55;17.40;99.90
9772;DHT22;4925;52.588;13.370;2023-07-20T03:33:31;17.50;99.90
9772;DHT22;4925;52.588;13.370;2023-07-20T03:35:57;17.40;99.90
9772;DHT22;4925;52.588;13.370;2023-07-20T03:38:25;17.30;99.90
9772;DHT22;4925;52.588;13.370;2023-07-20T03:40:59;17.30;99.90
9772;DHT22;4925;52.588;13.370;2023-07-20T03:43:26;17.40;99.90
9772;DHT22;4925;52.588;13.370;2023-07-20T03:45:52;17.50;99.90
9772;DHT22;4925;52.588;13.370;2023-07-20T03:48:20;17.50;99.90
9772;DHT22;4925;52.588;13.370;2023-07-20T03:50:48;17.50;99.90
9772;DHT22;4925;52.588;13.370;2023-07-20T03:53:14;17.70;99.90
9772;DHT22;4925;52.588;13.370;2023-07-20T03:55:41;17.80;99.90
9772;DHT22;4925;52.588;13.370;2023-07-20T03:58:09;17.80;99.90
9772;DHT22;4925;52.588;13.370;2023-07-20T04:00:35;18.00;99.90
9772;DHT22;4925;52.588;13.370;2023-07-20T04:03:01;18.10;99.90
9772;DHT22;4925;52.588;13.370;2023-07-20T04:05:26;18.10;99.90
9772;DHT22;4925;52.588;13.370;2023-07-20T04:07:52;18.20;99.90
9772;DHT22;4925;52.588;13.370;2023-07-20T04:10:18;18.10;99.90
9772;DHT22;4925;52.588;13.370;2023-07-20T04:12:45;18.10;99.90
9772;DHT22;4925;52.588;13.370;2023-07-20T04:15:13;18.10;99.90
9772;DHT22;4925;52.588;13.370;2023-07-20T04:17:38;18.10;99.90
9772;DHT22;4925;52.588;13.370;2023-07-20T04:20:05;18.00;99.90
9772;DHT22;4925;52.588;13.370;2023-07-20T04:22:31;18.00;99.90
9772;DHT22;4925;52.588;13.370;2023-07-20T04:24:57;18.00;99.90
9772;DHT22;4925;52.588;13.370;2023-07-20T04:27:23;18.10;99.90
9772;DHT22;4925;52.588;13.370;2023-07-20T04:29:48;18.10;99.90
9772;DHT22;4925;52.588;13.370;2023-07-20T04:32:14;18.10;99.90
9772;DHT22;4925;52.588;13.370;2023-07-20T04:34:40;18.20;99.90
9772;DHT22;4925;52.588;13.370;2023-07-20T04:37:05;18.30;99.90
9772;DHT22;4925;52.588;13.370;2023-07-20T04:39:31;18.30;99.90
9772;DHT22;4925;52.588;13.370;2023-07-20T04:41:57;18.40;99.90
9772;DHT22;4925;52.588;13.370;2023-07-20T04:44:23;18.40;99.90
9772;DHT22;4925;52.588;13.370;2023-07-20T04:46:48;18.40;99.90
9772;DHT22;4925;52.588;13.370;2023-07-20T04:49:14;18.40;99.90
9772;DHT22;4925;52.588;13.370;2023-07-20T04:51:40;18.40;99.90
9772;DHT22;4925;52.588;13.370;2023-07-20T04:54:06;18.40;99.90
9772;DHT22;4925;52.588;13.370;2023-07-20T04:56:31;18.40;99.90
9772;DHT22;4925;52.588;13.370;2023-07-20T04:58:57;18.40;99.90
9772;DHT22;4925;52.588;13.370;2023-07-20T05:01:23;18.50;99.90
9772;DHT22;4925;52.588;13.370;2023-07-20T05:03:49;18.40;99.90
9772;DHT22;4925;52.588;13.370;2023-07-20T05:06:15;18.40;99.90
9772;DHT22;4925;52.588;13.370;2023-07-20T05:08:40;18.30;99.90
9772;DHT22;4925;52.588;13.370;2023-07-20T05:11:06;18.30;99.90
9772;DHT22;4925;52.588;13.370;2023-07-20T05:13:33;18.30;99.90
9772;DHT22;4925;52.588;13.370;2023-07-20T05:15:59;18.10;99.90
9772;DHT22;4925;52.588;13.370;2023-07-20T05:18:24;18.20;99.90
9772;DHT22;4925;52.588;13.370;2023-07-20T05:20:50;18.30;99.90
9772;DHT22;4925;52.588;13.370;2023-07-20T05:23:19;18.40;99.90
9772;DHT22;4925;52.588;13.370;2023-07-20T05:25:54;18.60;99.90
9772;DHT22;4925;52.588;13.370;2023-07-20T05:28:20;18.60;99.90
9772;DHT22;4925;52.588;13.370;2023-07-20T05:30:46;18.70;99.90
9772;DHT22;4925;52.588;13.370;2023-07-20T05:33:11;18.80;99.90
9772;DHT22;4925;52.588;13.370;2023-07-20T05:35:37;18.90;99.90
9772;DHT22;4925;52.588;13.370;2023-07-20T05:38:03;19.10;99.90
9772;DHT22;4925;52.588;13.370;2023-07-20T05:40:30;19.30;99.90
9772;DHT22;4925;52.588;13.370;2023-07-20T05:42:56;19.50;99.90
9772;DHT22;4925;52.588;13.370;2023-07-20T05:45:22;19.70;99.90
9772;DHT22;4925;52.588;13.370;2023-07-20T05:47:48;20.00;99.90
9772;DHT22;4925;52.588;13.370;2023-07-20T05:50:14;20.20;98.50
9772;DHT22;4925;52.588;13.370;2023-07-20T05:52:40;20.20;81.40
9772;DHT22;4925;52.588;13.370;2023-07-20T05:55:06;20.10;91.10
9772;DHT22;4925;52.588;13.370;2023-07-20T05:57:32;20.10;78.30
9772;DHT22;4925;52.588;13.370;2023-07-20T05:59:58;20.20;82.60
9772;DHT22;4925;52.588;13.370;2023-07-20T06:02:24;20.30;65.30
9772;DHT22;4925;52.588;13.370;2023-07-20T06:04:49;20.40;50.20
9772;DHT22;4925;52.588;13.370;2023-07-20T06:07:15;20.60;22.80
9772;DHT22;4925;52.588;13.370;2023-07-20T06:09:41;20.70;1.00
9772;DHT22;4925;52.588;13.370;2023-07-20T06:12:07;20.80;1.00
9772;DHT22;4925;52.588;13.370;2023-07-20T06:14:33;20.90;1.00
9772;DHT22;4925;52.588;13.370;2023-07-20T06:16:58;20.70;1.00
9772;DHT22;4925;52.588;13.370;2023-07-20T06:19:24;20.60;1.00
9772;DHT22;4925;52.588;13.370;2023-07-20T06:21:50;20.60;1.00
9772;DHT22;4925;52.588;13.370;2023-07-20T06:24:17;20.50;1.00
9772;DHT22;4925;52.588;13.370;2023-07-20T06:26:43;20.40;1.00
9772;DHT22;4925;52.588;13.370;2023-07-20T06:29:08;20.10;1.00
9772;DHT22;4925;52.588;13.370;2023-07-20T06:31:35;20.00;6.60
9772;DHT22;4925;52.588;13.370;2023-07-20T06:34:01;20.10;12.10
9772;DHT22;4925;52.588;13.370;2023-07-20T06:36:27;19.70;1.00
9772;DHT22;4925;52.588;13.370;2023-07-20T06:38:53;19.80;12.40
9772;DHT22;4925;52.588;13.370;2023-07-20T06:41:19;19.70;23.00
9772;DHT22;4925;52.588;13.370;2023-07-20T06:43:45;19.50;29.60
9772;DHT22;4925;52.588;13.370;2023-07-20T06:46:11;19.50;36.00
9772;DHT22;4925;52.588;13.370;2023-07-20T06:48:36;19.70;18.60
9772;DHT22;4925;52.588;13.370;2023-07-20T06:51:05;19.70;10.10
9772;DHT22;4925;52.588;13.370;2023-07-20T06:53:31;19.80;1.00
9772;DHT22;4925;52.588;13.370;2023-07-20T06:55:57;19.50;10.70
9772;DHT22;4925;52.588;13.370;2023-07-20T06:58:23;19.40;13.60
9772;DHT22;4925;52.588;13.370;2023-07-20T07:00:49;19.40;15.40
9772;DHT22;4925;52.588;13.370;2023-07-20T07:03:15;19.30;12.80
9772;DHT22;4925;52.588;13.370;2023-07-20T07:05:40;19.40;14.70
9772;DHT22;4925;52.588;13.370;2023-07-20T07:08:06;19.50;7.30
9772;DHT22;4925;52.588;13.370;2023-07-20T07:10:34;19.50;2.60
9772;DHT22;4925;52.588;13.370;2023-07-20T07:13:00;19.60;1.00
9772;DHT22;4925;52.588;13.370;2023-07-20T07:15:25;19.90;1.00
9772;DHT22;4925;52.588;13.370;2023-07-20T07:17:52;19.90;1.00
9772;DHT22;4925;52.588;13.370;2023-07-20T07:20:17;20.10;1.00
9772;DHT22;4925;52.588;13.370;2023-07-20T07:22:43;20.00;1.00
9772;DHT22;4925;52.588;13.370;2023-07-20T07:25:09;20.10;1.00
9772;DHT22;4925;52.588;13.370;2023-07-20T07:27:35;20.30;1.00
9772;DHT22;4925;52.588;13.370;2023-07-20T07:30:02;20.40;1.00
9772;DHT22;4925;52.588;13.370;2023-07-20T07:32:28;20.60;1.00
9772;DHT22;4925;52.588;13.370;2023-07-20T07:34:53;20.60;1.00
9772;DHT22;4925;52.588;13.370;2023-07-20T07:37:19;20.60;1.00
9772;DHT22;4925;52.588;13.370;2023-07-20T07:39:45;20.80;1.00
9772;DHT22;4925;52.588;13.370;2023-07-20T07:42:12;20.90;1.00
9772;DHT22;4925;52.588;13.370;2023-07-20T07:44:38;20.80;1.00
9772;DHT22;4925;52.588;13.370;2023-07-20T07:47:04;20.90;1.00
9772;DHT22;4925;52.588;13.370;2023-07-20T07:49:29;21.10;1.00
9772;DHT22;4925;52.588;13.370;2023-07-20T07:51:56;21.30;99.90
9772;DHT22;4925;52.588;13.370;2023-07-20T07:54:22;21.50;99.90
9772;DHT22;4925;52.588;13.370;2023-07-20T07:56:48;21.50;1.00
9772;DHT22;4925;52.588;13.370;2023-07-20T07:59:14;21.70;1.00
9772;DHT22;4925;52.588;13.370;2023-07-20T08:01:39;22.00;99.90
9772;DHT22;4925;52.588;13.370;2023-07-20T08:04:05;21.60;96.50
9772;DHT22;4925;52.588;13.370;2023-07-20T08:06:31;21.50;1.00
9772;DHT22;4925;52.588;13.370;2023-07-20T08:08:57;21.10;1.00
9772;DHT22;4925;52.588;13.370;2023-07-20T08:11:23;21.20;8.80
9772;DHT22;4925;52.588;13.370;2023-07-20T08:13:49;21.30;48.20
9772;DHT22;4925;52.588;13.370;2023-07-20T08:16:15;21.30;1.00
9772;DHT22;4925;52.588;13.370;2023-07-20T08:18:40;21.40;1.00
9772;DHT22;4925;52.588;13.370;2023-07-20T08:21:06;21.60;99.90
9772;DHT22;4925;52.588;13.370;2023-07-20T08:23:32;21.80;49.70
9772;DHT22;4925;52.588;13.370;2023-07-20T08:25:57;21.60;99.90
9772;DHT22;4925;52.588;13.370;2023-07-20T08:28:23;21.90;99.90
9772;DHT22;4925;52.588;13.370;2023-07-20T08:30:49;22.00;1.00
9772;DHT22;4925;52.588;13.370;2023-07-20T08:33:17;22.00;79.90
9772;DHT22;4925;52.588;13.370;2023-07-20T08:35:46;22.00;99.90
9772;DHT22;4925;52.588;13.370;2023-07-20T08:38:12;22.00;1.00
9772;DHT22;4925;52.588;13.370;2023-07-20T08:40:42;21.40;1.00
9772;DHT22;4925;52.588;13.370;2023-07-20T08:43:10;21.50;42.10
9772;DHT22;4925;52.588;13.370;2023-07-20T08:45:39;21.70;1.00
9772;DHT22;4925;52.588;13.370;2023-07-20T08:48:08;21.70;1.00
9772;DHT22;4925;52.588;13.370;2023-07-20T08:50:35;21.50;99.90
9772;DHT22;4925;52.588;13.370;2023-07-20T08:53:02;21.70;99.90
9772;DHT22;4925;52.588;13.370;2023-07-20T08:55:29;21.50;1.00
9772;DHT22;4925;52.588;13.370;2023-07-20T08:57:56;21.70;1.00
9772;DHT22;4925;52.588;13.370;2023-07-20T09:00:23;22.00;99.90
9772;DHT22;4925;52.588;13.370;2023-07-20T09:02:53;22.20;99.90
9772;DHT22;4925;52.588;13.370;2023-07-20T09:05:20;22.70;96.10
9772;DHT22;4925;52.588;13.370;2023-07-20T09:07:46;22.90;1.00
9772;DHT22;4925;52.588;13.370;2023-07-20T09:10:12;23.00;99.90
9772;DHT22;4925;52.588;13.370;2023-07-20T09:12:39;23.10;1.00
9772;DHT22;4925;52.588;13.370;2023-07-20T09:15:06;23.20;99.90
9772;DHT22;4925;52.588;13.370;2023-07-20T09:17:32;23.20;99.90
9772;DHT22;4925;52.588;13.370;2023-07-20T09:19:58;23.40;1.00
9772;DHT22;4925;52.588;13.370;2023-07-20T09:22:31;23.80;99.90
9772;DHT22;4925;52.588;13.370;2023-07-20T09:24:58;24.30;1.00
9772;DHT22;4925;52.588;13.370;2023-07-20T09:27:44;24.70;99.90
9772;DHT22;4925;52.588;13.370;2023-07-20T09:30:10;24.80;1.00
9772;DHT22;4925;52.588;13.370;2023-07-20T09:32:46;24.10;99.90
9772;DHT22;4925;52.588;13.370;2023-07-20T09:35:17;23.60;1.00
9772;DHT22;4925;52.588;13.370;2023-07-20T09:37:51;23.20;99.90
9772;DHT22;4925;52.588;13.370;2023-07-20T09:40:20;23.00;1.00
9772;DHT22;4925;52.588;13.370;2023-07-20T09:42:46;23.00;1.00
9772;DHT22;4925;52.588;13.370;2023-07-20T09:45:12;22.80;1.00
9772;DHT22;4925;52.588;13.370;2023-07-20T09:47:39;22.50;57.50
9772;DHT22;4925;52.588;13.370;2023-07-20T09:50:06;22.50;99.90
9772;DHT22;4925;52.588;13.370;2023-07-20T09:52:38;22.00;1.00
9772;DHT22;4925;52.588;13.370;2023-07-20T09:55:06;22.10;1.00
9772;DHT22;4925;52.588;13.370;2023-07-20T09:57:36;22.10;99.90
9772;DHT22;4925;52.588;13.370;2023-07-20T10:00:07;22.00;1.00
9772;DHT22;4925;52.588;13.370;2023-07-20T10:02:42;22.00;28.50
9772;DHT22;4925;52.588;13.370;2023-07-20T10:05:11;21.80;1.00
9772;DHT22;4925;52.588;13.370;2023-07-20T10:07:44;22.00;1.00
9772;DHT22;4925;52.588;13.370;2023-07-20T10:10:17;21.60;1.00
9772;DHT22;4925;52.588;13.370;2023-07-20T10:12:46;21.40;99.90
9772;DHT22;4925;52.588;13.370;2023-07-20T10:15:23;21.30;1.00
9772;DHT22;4925;52.588;13.370;2023-07-20T10:18:12;21.30;1.00
9772;DHT22;4925;52.588;13.370;2023-07-20T10:20:40;21.20;1.00
9772;DHT22;4925;52.588;13.370;2023-07-20T10:23:07;21.30;99.90
9772;DHT22;4925;52.588;13.370;2023-07-20T10:25:34;21.30;99.90
9772;DHT22;4925;52.588;13.370;2023-07-20T10:28:05;21.30;99.90
9772;DHT22;4925;52.588;13.370;2023-07-20T10:30:32;21.00;1.00
9772;DHT22;4925;52.588;13.370;2023-07-20T10:33:00;21.00;1.00
9772;DHT22;4925;52.588;13.370;2023-07-20T10:35:28;20.90;10.70
9772;DHT22;4925;52.588;13.370;2023-07-20T10:37:59;21.00;1.00
9772;DHT22;4925;52.588;13.370;2023-07-20T10:42:57;21.40;1.00
9772;DHT22;4925;52.588;13.370;2023-07-20T10:45:35;21.40;99.90
9772;DHT22;4925;52.588;13.370;2023-07-20T10:50:40;21.20;1.00
9772;DHT22;4925;52.588;13.370;2023-07-20T10:53:14;21.30;1.00
9772;DHT22;4925;52.588;13.370;2023-07-20T10:55:41;21.30;1.00
9772;DHT22;4925;52.588;13.370;2023-07-20T10:58:14;21.40;99.90
9772;DHT22;4925;52.588;13.370;2023-07-20T11:01:00;21.60;1.00
9772;DHT22;4925;52.588;13.370;2023-07-20T11:03:27;21.80;1.00
9772;DHT22;4925;52.588;13.370;2023-07-20T11:05:53;22.10;1.00
9772;DHT22;4925;52.588;13.370;2023-07-20T11:08:39;21.90;1.00
9772;DHT22;4925;52.588;13.370;2023-07-20T11:11:27;21.90;1.00
9772;DHT22;4925;52.588;13.370;2023-07-20T11:13:58;21.90;99.90
9772;DHT22;4925;52.588;13.370;2023-07-20T11:16:41;22.10;1.00
9772;DHT22;4925;52.588;13.370;2023-07-20T11:19:17;21.90;99.90
9772;DHT22;4925;52.588;13.370;2023-07-20T11:21:49;21.80;99.90
9772;DHT22;4925;52.588;13.370;2023-07-20T11:24:15;21.70;1.00
9772;DHT22;4925;52.588;13.370;2023-07-20T11:26:45;21.70;99.90
9772;DHT22;4925;52.588;13.370;2023-07-20T11:29:13;21.70;99.90
9772;DHT22;4925;52.588;13.370;2023-07-20T11:31:40;22.00;83.20
9772;DHT22;4925;52.588;13.370;2023-07-20T11:34:06;22.60;1.00
9772;DHT22;4925;52.588;13.370;2023-07-20T11:36:33;23.10;1.00
9772;DHT22;4925;52.588;13.370;2023-07-20T11:38:59;22.90;1.00
9772;DHT22;4925;52.588;13.370;2023-07-20T11:41:25;22.60;99.40
9772;DHT22;4925;52.588;13.370;2023-07-20T11:43:54;22.50;99.90
9772;DHT22;4925;52.588;13.370;2023-07-20T11:46:20;22.10;1.00
9772;DHT22;4925;52.588;13.370;2023-07-20T11:48:45;22.00;99.90
9772;DHT22;4925;52.588;13.370;2023-07-20T11:51:17;22.20;1.00
9772;DHT22;4925;52.588;13.370;2023-07-20T11:53:44;22.30;99.90
9772;DHT22;4925;52.588;13.370;2023-07-20T11:56:11;22.10;99.90
9772;DHT22;4925;52.588;13.370;2023-07-20T11:58:42;21.90;99.90
9772;DHT22;4925;52.588;13.370;2023-07-20T12:01:08;21.90;99.90
9772;DHT22;4925;52.588;13.370;2023-07-20T12:03:34;21.80;99.90
9772;DHT22;4925;52.588;13.370;2023-07-20T12:06:07;21.70;1.00
9772;DHT22;4925;52.588;13.370;2023-07-20T12:08:33;21.60;99.90
9772;DHT22;4925;52.588;13.370;2023-07-20T12:10:59;21.60;57.50
9772;DHT22;4925;52.588;13.370;2023-07-20T12:13:45;21.30;1.00
9772;DHT22;4925;52.588;13.370;2023-07-20T12:16:16;21.30;99.90
9772;DHT22;4925;52.588;13.370;2023-07-20T12:18:43;21.30;99.90
9772;DHT22;4925;52.588;13.370;2023-07-20T12:21:10;21.10;1.00
9772;DHT22;4925;52.588;13.370;2023-07-20T12:23:40;21.00;1.00
9772;DHT22;4925;52.588;13.370;2023-07-20T12:26:10;21.20;1.00
9772;DHT22;4925;52.588;13.370;2023-07-20T12:28:42;21.40;99.90
9772;DHT22;4925;52.588;13.370;2023-07-20T12:31:08;21.70;1.00
9772;DHT22;4925;52.588;13.370;2023-07-20T12:33:35;21.90;1.00
9772;DHT22;4925;52.588;13.370;2023-07-20T12:36:01;21.90;1.00
9772;DHT22;4925;52.588;13.370;2023-07-20T12:38:26;22.10;99.90
9772;DHT22;4925;52.588;13.370;2023-07-20T12:40:53;22.50;99.90
9772;DHT22;4925;52.588;13.370;2023-07-20T12:43:20;23.00;99.90
9772;DHT22;4925;52.588;13.370;2023-07-20T12:45:46;23.30;1.00
9772;DHT22;4925;52.588;13.370;2023-07-20T12:48:12;23.60;99.90
9772;DHT22;4925;52.588;13.370;2023-07-20T12:50:38;23.80;99.90
9772;DHT22;4925;52.588;13.370;2023-07-20T12:53:04;23.80;19.20
9772;DHT22;4925;52.588;13.370;2023-07-20T12:55:29;23.60;1.00
9772;DHT22;4925;52.588;13.370;2023-07-20T12:57:55;24.30;99.90
9772;DHT22;4925;52.588;13.370;2023-07-20T13:00:21;24.30;1.00
9772;DHT22;4925;52.588;13.370;2023-07-20T13:02:50;24.70;1.00
9772;DHT22;4925;52.588;13.370;2023-07-20T13:05:15;24.30;1.00
9772;DHT22;4925;52.588;13.370;2023-07-20T13:07:42;24.10;1.00
9772;DHT22;4925;52.588;13.370;2023-07-20T13:10:08;24.10;1.00
9772;DHT22;4925;52.588;13.370;2023-07-20T13:12:35;24.10;1.00
9772;DHT22;4925;52.588;13.370;2023-07-20T13:15:03;24.10;1.00
9772;DHT22;4925;52.588;13.370;2023-07-20T13:17:34;23.90;1.00
9772;DHT22;4925;52.588;13.370;2023-07-20T13:20:01;24.00;1.00
9772;DHT22;4925;52.588;13.370;2023-07-20T13:22:27;23.80;1.00
9772;DHT22;4925;52.588;13.370;2023-07-20T13:24:53;24.10;1.00
9772;DHT22;4925;52.588;13.370;2023-07-20T13:27:19;24.30;1.00
9772;DHT22;4925;52.588;13.370;2023-07-20T13:29:45;24.40;99.90
9772;DHT22;4925;52.588;13.370;2023-07-20T13:32:13;24.60;99.90
9772;DHT22;4925;52.588;13.370;2023-07-20T13:34:43;24.40;99.90
9772;DHT22;4925;52.588;13.370;2023-07-20T13:37:10;24.20;99.90
9772;DHT22;4925;52.588;13.370;2023-07-20T13:39:36;24.40;99.90
9772;DHT22;4925;52.588;13.370;2023-07-20T13:42:02;24.30;99.90
9772;DHT22;4925;52.588;13.370;2023-07-20T13:44:30;24.50;99.90
9772;DHT22;4925;52.588;13.370;2023-07-20T13:46:56;25.10;99.90
9772;DHT22;4925;52.588;13.370;2023-07-20T13:49:22;25.40;99.90
9772;DHT22;4925;52.588;13.370;2023-07-20T13:51:48;25.50;99.90
9772;DHT22;4925;52.588;13.370;2023-07-20T13:54:14;25.80;99.90
9772;DHT22;4925;52.588;13.370;2023-07-20T13:56:39;25.60;99.90
9772;DHT22;4925;52.588;13.370;2023-07-20T13:59:05;25.20;99.90
9772;DHT22;4925;52.588;13.370;2023-07-20T14:01:31;25.30;99.90
9772;DHT22;4925;52.588;13.370;2023-07-20T14:04:00;25.20;99.90
9772;DHT22;4925;52.588;13.370;2023-07-20T14:06:26;25.50;99.90
9772;DHT22;4925;52.588;13.370;2023-07-20T14:08:52;25.70;99.90
9772;DHT22;4925;52.588;13.370;2023-07-20T14:11:18;25.80;99.90
9772;DHT22;4925;52.588;13.370;2023-07-20T14:13:44;26.00;99.90
9772;DHT22;4925;52.588;13.370;2023-07-20T14:16:10;25.90;99.90
9772;DHT22;4925;52.588;13.370;2023-07-20T14:18:36;26.00;99.90
9772;DHT22;4925;52.588;13.370;2023-07-20T14:21:02;26.00;99.90
9772;DHT22;4925;52.588;13.370;2023-07-20T14:23:29;26.00;99.90
9772;DHT22;4925;52.588;13.370;2023-07-20T14:25:55;25.80;99.90
9772;DHT22;4925;52.588;13.370;2023-07-20T14:28:21;25.70;99.90
9772;DHT22;4925;52.588;13.370;2023-07-20T14:30:46;25.60;99.90
9772;DHT22;4925;52.588;13.370;2023-07-20T14:33:12;25.60;99.90
9772;DHT22;4925;52.588;13.370;2023-07-20T14:35:38;25.50;99.90
9772;DHT22;4925;52.588;13.370;2023-07-20T14:38:04;25.60;99.90
9772;DHT22;4925;52.588;13.370;2023-07-20T14:40:29;25.60;99.90
9772;DHT22;4925;52.588;13.370;2023-07-20T14:42:56;25.20;99.90
9772;DHT22;4925;52.588;13.370;2023-07-20T14:45:21;25.20;99.90
9772;DHT22;4925;52.588;13.370;2023-07-20T14:47:47;25.20;99.90
9772;DHT22;4925;52.588;13.370;2023-07-20T14:50:19;25.40;99.90
9772;DHT22;4925;52.588;13.370;2023-07-20T14:52:45;25.10;99.90
9772;DHT22;4925;52.588;13.370;2023-07-20T14:55:11;25.10;99.90
9772;DHT22;4925;52.588;13.370;2023-07-20T14:57:36;24.90;99.90
9772;DHT22;4925;52.588;13.370;2023-07-20T15:00:03;24.90;99.90
9772;DHT22;4925;52.588;13.370;2023-07-20T15:02:33;24.90;99.90
9772;DHT22;4925;52.588;13.370;2023-07-20T15:04:59;24.90;99.90
9772;DHT22;4925;52.588;13.370;2023-07-20T15:07:25;24.90;99.90
9772;DHT22;4925;52.588;13.370;2023-07-20T15:09:51;25.10;99.90
9772;DHT22;4925;52.588;13.370;2023-07-20T15:12:17;25.10;99.90
9772;DHT22;4925;52.588;13.370;2023-07-20T15:14:43;25.20;99.90
9772;DHT22;4925;52.588;13.370;2023-07-20T15:17:09;25.30;99.90
9772;DHT22;4925;52.588;13.370;2023-07-20T15:19:35;25.20;99.90
9772;DHT22;4925;52.588;13.370;2023-07-20T15:22:02;25.10;99.90
9772;DHT22;4925;52.588;13.370;2023-07-20T15:24:32;25.00;99.90
9772;DHT22;4925;52.588;13.370;2023-07-20T15:26:58;25.20;99.90
9772;DHT22;4925;52.588;13.370;2023-07-20T15:29:24;25.20;99.90
9772;DHT22;4925;52.588;13.370;2023-07-20T15:31:50;24.90;99.90
9772;DHT22;4925;52.588;13.370;2023-07-20T15:34:16;24.90;99.90
9772;DHT22;4925;52.588;13.370;2023-07-20T15:36:42;24.80;99.90
9772;DHT22;4925;52.588;13.370;2023-07-20T15:39:08;24.70;99.90
9772;DHT22;4925;52.588;13.370;2023-07-20T15:41:34;24.70;99.90
9772;DHT22;4925;52.588;13.370;2023-07-20T15:44:00;24.60;99.90
9772;DHT22;4925;52.588;13.370;2023-07-20T15:46:41;24.70;99.90
9772;DHT22;4925;52.588;13.370;2023-07-20T15:49:08;24.80;99.90
9772;DHT22;4925;52.588;13.370;2023-07-20T15:51:35;24.80;99.90
9772;DHT22;4925;52.588;13.370;2023-07-20T15:54:11;24.90;99.90
9772;DHT22;4925;52.588;13.370;2023-07-20T15:56:38;24.80;99.90
9772;DHT22;4925;52.588;13.370;2023-07-20T15:59:05;24.90;99.90
9772;DHT22;4925;52.588;13.370;2023-07-20T16:01:31;24.90;99.90
9772;DHT22;4925;52.588;13.370;2023-07-20T16:03:57;25.00;99.90
9772;DHT22;4925;52.588;13.370;2023-07-20T16:06:23;25.10;99.90